Time;durP1;ratioP1;P1;durP2;ratioP2;P2;SDS_P1;SDS_P2;PMS_P1;PMS_P2;Temp;Humidity;BMP_temperature;BMP_pressure;BME280_temperature;BME280_humidity;BME280_pressure;Samples;Min_cycle;Max_cycle;Signal;HPM_P1;HPM_P2
2023/06/04 00:02:10;;;;;;;5.60;2.00;;;;;;;;;;12984194;19;20002;-60
2023/06/04 00:06:28;;;;;;;;;;;;;;;;;;12985420;19;20019;-60
2023/06/04 00:10:46;;;;;;;7.13;2.38;;;;;;;;;;12983969;19;20267;-61
2023/06/04 00:15:04;;;;;;;7.32;3.53;;;;;;;;;;12983149;19;20007;-61
2023/06/04 00:19:22;;;;;;;3.85;2.38;;;;;;;;;;12983434;19;20037;-60
2023/06/04 00:23:39;;;;;;;2.95;1.80;;;;;;;;;;12981944;19;20026;-60
2023/06/04 00:27:57;;;;;;;;;;;;;;;;;;12983478;19;20608;-60
2023/06/04 00:32:17;;;;;;;4.75;2.20;;;;;;;;;;12982816;19;19922;-60
2023/06/04 00:36:35;;;;;;;5.32;2.40;;;;;;;;;;12982427;19;20014;-61
2023/06/04 00:40:53;;;;;;;5.82;1.83;;;;;;;;;;12982697;19;20021;-60
2023/06/04 00:45:13;;;;;;;5.03;2.15;;;;;;;;;;12981539;19;20003;-61
2023/06/04 00:49:32;;;;;;;2.13;1.48;;;;;;;;;;12982272;19;20445;-60
2023/06/04 00:53:50;;;;;;;3.70;1.23;;;;;;;;;;12978629;19;20430;-61
2023/06/04 00:58:09;;;;;;;4.47;1.42;;;;;;;;;;12981180;19;20454;-60
2023/06/04 01:02:29;;;;;;;3.40;1.40;;;;;;;;;;12981880;19;20015;-61
2023/06/04 01:06:53;;;;;;;3.22;1.58;;;;;;;;;;12979640;19;20010;-60
2023/06/04 01:11:11;;;;;;;2.83;1.23;;;;;;;;;;12981081;19;20031;-60
2023/06/04 01:15:29;;;;;;;3.60;1.60;;;;;;;;;;12981328;19;20029;-61
2023/06/04 01:20:21;;;;;;;3.00;1.52;;;;;;;;;;12980981;19;20479;-60
2023/06/04 01:24:42;;;;;;;4.70;1.13;;;;;;;;;;12980803;19;20394;-60
2023/06/04 01:29:01;;;;;;;4.00;1.13;;;;;;;;;;12980421;19;20010;-60
2023/06/04 01:33:20;;;;;;;2.38;1.13;;;;;;;;;;12980193;19;20021;-60
2023/06/04 01:37:38;;;;;;;3.63;1.48;;;;;;;;;;12988158;19;20035;-60
2023/06/04 01:41:56;;;;;;;3.17;1.13;;;;;;;;;;12991693;19;20006;-60
2023/06/04 01:46:14;;;;;;;;;;;;;;;;;;12991770;19;20014;-60
2023/06/04 01:50:33;;;;;;;4.55;1.30;;;;;;;;;;12991914;19;19914;-60
2023/06/04 01:54:52;;;;;;;;;;;;;;;;;;12991659;19;20042;-60
2023/06/04 01:59:11;;;;;;;2.50;1.20;;;;;;;;;;12989445;19;19911;-60
2023/06/04 02:03:36;;;;;;;6.10;1.05;;;;;;;;;;12991558;19;20006;-60
2023/06/04 02:07:57;;;;;;;1.80;1.00;;;;;;;;;;12991046;19;20041;-60
2023/06/04 02:12:15;;;;;;;2.17;1.25;;;;;;;;;;12990327;19;20018;-60
2023/06/04 02:16:33;;;;;;;1.80;0.93;;;;;;;;;;12989484;19;20357;-60
2023/06/04 02:20:52;;;;;;;1.25;0.90;;;;;;;;;;12991401;19;20018;-60
2023/06/04 02:25:10;;;;;;;4.32;1.10;;;;;;;;;;12989235;19;20473;-61
2023/06/04 02:29:28;;;;;;;;;;;;;;;;;;12991125;19;20015;-61
2023/06/04 02:33:48;;;;;;;2.15;1.05;;;;;;;;;;12987869;19;19924;-61
2023/06/04 02:38:05;;;;;;;1.48;0.80;;;;;;;;;;12987964;19;20398;-60
2023/06/04 02:42:23;;;;;;;1.65;0.80;;;;;;;;;;12989148;19;20289;-61
2023/06/04 02:46:42;;;;;;;2.65;0.98;;;;;;;;;;12987812;19;20015;-61
2023/06/04 02:51:00;;;;;;;2.05;0.80;;;;;;;;;;12988126;19;20027;-61
2023/06/04 02:55:19;;;;;;;2.67;0.82;;;;;;;;;;12987372;19;20011;-61
2023/06/04 02:59:38;;;;;;;1.80;1.02;;;;;;;;;;12987393;19;20019;-60
2023/06/04 03:03:57;;;;;;;1.17;0.88;;;;;;;;;;12988128;19;20015;-60
2023/06/04 03:08:15;;;;;;;1.85;0.90;;;;;;;;;;12987560;19;20014;-59
2023/06/04 03:12:34;;;;;;;1.77;1.00;;;;;;;;;;12987775;19;20027;-60
2023/06/04 03:16:53;;;;;;;1.20;0.80;;;;;;;;;;12986822;19;20018;-60
2023/06/04 03:21:11;;;;;;;4.20;0.88;;;;;;;;;;12987153;19;20017;-60
2023/06/04 03:25:29;;;;;;;1.63;0.85;;;;;;;;;;12986079;19;20477;-60
2023/06/04 03:29:48;;;;;;;1.92;0.77;;;;;;;;;;12986730;19;20469;-60
2023/06/04 03:34:09;;;;;;;2.47;1.00;;;;;;;;;;12985912;19;20006;-60
2023/06/04 03:38:27;;;;;;;1.25;0.63;;;;;;;;;;12986063;19;20391;-60
2023/06/04 03:42:44;;;;;;;3.17;0.90;;;;;;;;;;12984501;19;20327;-60
2023/06/04 03:47:02;;;;;;;;;;;;;;;;;;12985499;19;20035;-61
2023/06/04 03:51:20;;;;;;;1.23;0.65;;;;;;;;;;12984791;19;20334;-60
2023/06/04 03:55:38;;;;;;;1.80;0.63;;;;;;;;;;12984506;19;20017;-60
2023/06/04 03:59:56;;;;;;;2.28;1.40;;;;;;;;;;12982314;19;20006;-60
2023/06/04 04:04:14;;;;;;;1.50;0.80;;;;;;;;;;12984335;19;20049;-61
2023/06/04 04:08:34;;;;;;;;;;;;;;;;;;12984709;19;20037;-60
2023/06/04 04:12:53;;;;;;;2.45;0.93;;;;;;;;;;12984344;19;20382;-60
2023/06/04 04:17:12;;;;;;;4.00;0.73;;;;;;;;;;12982847;19;20019;-60
2023/06/04 04:21:30;;;;;;;4.60;1.35;;;;;;;;;;12984068;19;20014;-60
2023/06/04 04:25:49;;;;;;;1.67;0.98;;;;;;;;;;12983686;19;20010;-60
2023/06/04 04:30:07;;;;;;;3.30;1.17;;;;;;;;;;12982992;19;20068;-60
2023/06/04 04:34:26;;;;;;;2.13;1.05;;;;;;;;;;12984562;19;20350;-60
2023/06/04 04:38:45;;;;;;;1.23;0.80;;;;;;;;;;12983430;19;20026;-61
2023/06/04 04:43:03;;;;;;;1.50;0.80;;;;;;;;;;12982305;19;20350;-61
2023/06/04 04:47:21;;;;;;;2.63;0.88;;;;;;;;;;12982128;19;20516;-61
2023/06/04 04:51:39;;;;;;;3.45;0.77;;;;;;;;;;12982379;19;20014;-61
2023/06/04 04:55:57;;;;;;;1.40;0.70;;;;;;;;;;12981152;19;20042;-61
2023/06/04 05:00:17;;;;;;;1.27;0.70;;;;;;;;;;12981154;19;20014;-61
2023/06/04 05:04:34;;;;;;;2.22;0.85;;;;;;;;;;12981927;19;20014;-60
2023/06/04 05:08:53;;;;;;;2.00;1.00;;;;;;;;;;12982556;19;20025;-60
2023/06/04 05:13:11;;;;;;;1.50;0.98;;;;;;;;;;12993326;19;20043;-61
2023/06/04 05:17:29;;;;;;;3.45;0.82;;;;;;;;;;12993539;19;20019;-61
2023/06/04 05:21:48;;;;;;;2.72;0.60;;;;;;;;;;12994163;19;20420;-60
2023/06/04 05:26:06;;;;;;;2.55;0.93;;;;;;;;;;12993145;19;20022;-61
2023/06/04 05:30:25;;;;;;;1.05;0.70;;;;;;;;;;12994509;19;20371;-61
2023/06/04 05:34:44;;;;;;;2.92;0.80;;;;;;;;;;12993603;19;20019;-61
2023/06/04 05:39:02;;;;;;;0.73;0.63;;;;;;;;;;12992126;19;20007;-61
2023/06/04 05:43:21;;;;;;;4.55;0.90;;;;;;;;;;12992590;19;20018;-61
2023/06/04 05:47:38;;;;;;;1.35;0.85;;;;;;;;;;12991814;19;20014;-61
2023/06/04 05:51:57;;;;;;;2.78;0.90;;;;;;;;;;12992572;19;20018;-61
2023/06/04 05:56:16;;;;;;;1.73;0.90;;;;;;;;;;12990055;19;20014;-62
2023/06/04 06:00:34;;;;;;;2.05;0.80;;;;;;;;;;12991948;19;20022;-61
2023/06/04 06:04:52;;;;;;;;;;;;;;;;;;12991842;19;20014;-61
2023/06/04 06:09:10;;;;;;;0.73;0.40;;;;;;;;;;12990801;19;19915;-61
2023/06/04 06:13:28;;;;;;;3.33;0.80;;;;;;;;;;12991939;19;20014;-61
2023/06/04 06:17:46;;;;;;;;;;;;;;;;;;12990957;19;20018;-61
2023/06/04 06:22:04;;;;;;;1.40;1.13;;;;;;;;;;12988750;19;20349;-61
2023/06/04 06:26:24;;;;;;;4.45;0.60;;;;;;;;;;12992062;19;20010;-60
2023/06/04 06:30:42;;;;;;;0.90;0.45;;;;;;;;;;12991087;19;20022;-62
2023/06/04 06:35:01;;;;;;;0.55;0.43;;;;;;;;;;12990499;19;20082;-61
2023/06/04 06:39:18;;;;;;;2.92;0.50;;;;;;;;;;12988351;19;20018;-61
2023/06/04 06:43:37;;;;;;;0.90;0.75;;;;;;;;;;12989406;19;20025;-61
2023/06/04 06:47:55;;;;;;;1.55;0.70;;;;;;;;;;12989418;19;20010;-61
2023/06/04 06:52:14;;;;;;;0.88;0.55;;;;;;;;;;12988668;19;20029;-61
2023/06/04 06:56:33;;;;;;;0.65;0.60;;;;;;;;;;12987622;19;20026;-61
2023/06/04 07:00:51;;;;;;;1.60;0.80;;;;;;;;;;12988407;19;20003;-61
2023/06/04 07:05:09;;;;;;;0.95;0.50;;;;;;;;;;12987313;19;20036;-61
2023/06/04 07:09:26;;;;;;;2.03;0.50;;;;;;;;;;12988611;19;20011;-61
2023/06/04 07:13:45;;;;;;;4.45;0.63;;;;;;;;;;12987896;19;20014;-61
2023/06/04 07:18:04;;;;;;;4.25;0.52;;;;;;;;;;12986338;19;20011;-61
2023/06/04 07:22:21;;;;;;;1.23;0.70;;;;;;;;;;12985585;19;20073;-64
2023/06/04 07:26:39;;;;;;;;;;;;;;;;;;12989497;19;20611;-63
2023/06/04 07:30:58;;;;;;;1.83;0.70;;;;;;;;;;12988130;19;19918;-64
2023/06/04 07:35:17;;;;;;;0.63;0.57;;;;;;;;;;12983485;19;20029;-64
2023/06/04 07:39:34;;;;;;;0.95;0.50;;;;;;;;;;12986650;19;20014;-63
2023/06/04 07:43:52;;;;;;;1.38;0.35;;;;;;;;;;12986805;19;20470;-63
2023/06/04 07:48:11;;;;;;;2.65;0.60;;;;;;;;;;12984791;19;20481;-64
2023/06/04 07:52:30;;;;;;;1.33;0.50;;;;;;;;;;12985787;19;20032;-64
2023/06/04 07:56:48;;;;;;;1.90;0.77;;;;;;;;;;12985338;19;20018;-64
2023/06/04 08:01:06;;;;;;;;;;;;;;;;;;12985333;19;20019;-63
2023/06/04 08:05:24;;;;;;;0.93;0.80;;;;;;;;;;12984780;19;19942;-65
2023/06/04 08:09:44;;;;;;;1.52;0.60;;;;;;;;;;12984972;19;20346;-63
2023/06/04 08:14:01;;;;;;;0.70;0.60;;;;;;;;;;12984261;19;20363;-66
2023/06/04 08:18:19;;;;;;;1.35;0.60;;;;;;;;;;12982934;19;20017;-63
2023/06/04 08:22:56;;;;;;;1.15;0.80;;;;;;;;;;12984760;19;20014;-64
2023/06/04 08:27:17;;;;;;;6.47;0.70;;;;;;;;;;12984601;19;20010;-64
2023/06/04 08:31:56;;;;;;;0.50;0.40;;;;;;;;;;12982594;19;20011;-64
2023/06/04 08:36:18;;;;;;;0.75;0.63;;;;;;;;;;12983041;19;20014;-66
2023/06/04 08:40:36;;;;;;;0.77;0.52;;;;;;;;;;12981405;19;20010;-63
2023/06/04 08:44:57;;;;;;;2.47;0.70;;;;;;;;;;12982780;19;20033;-64
2023/06/04 08:49:18;;;;;;;1.38;0.80;;;;;;;;;;12982637;19;20023;-65
2023/06/04 08:53:36;;;;;;;2.17;0.75;;;;;;;;;;12980265;19;20014;-64
2023/06/04 08:57:57;;;;;;;1.20;0.45;;;;;;;;;;12981728;19;20021;-64
2023/06/04 09:02:16;;;;;;;1.38;0.60;;;;;;;;;;12981869;19;20007;-63
2023/06/04 09:06:37;;;;;;;1.00;0.47;;;;;;;;;;12980962;19;20026;-63
2023/06/04 09:10:55;;;;;;;0.80;0.50;;;;;;;;;;12980625;19;20014;-65
2023/06/04 09:15:14;;;;;;;0.80;0.70;;;;;;;;;;12979146;19;20007;-63
2023/06/04 09:19:31;;;;;;;8.60;0.90;;;;;;;;;;12981007;19;20018;-64
2023/06/04 09:23:49;;;;;;;2.30;0.90;;;;;;;;;;12981712;19;20365;-64
2023/06/04 09:28:07;;;;;;;;;;;;;;;;;;12980391;19;20038;-64
2023/06/04 09:32:30;;;;;;;1.25;0.60;;;;;;;;;;12980814;19;19915;-64
2023/06/04 09:36:49;;;;;;;3.38;0.80;;;;;;;;;;12981158;19;20035;-64
2023/06/04 09:41:17;;;;;;;1.30;0.70;;;;;;;;;;12978714;19;20021;-63
2023/06/04 09:45:36;;;;;;;2.53;0.63;;;;;;;;;;12981124;19;20817;-65
2023/06/04 09:49:54;;;;;;;1.17;0.70;;;;;;;;;;12980565;19;20006;-63
2023/06/04 09:54:11;;;;;;;2.65;0.95;;;;;;;;;;12979185;19;20041;-63
2023/06/04 09:58:30;;;;;;;;;;;;;;;;;;12988966;19;20023;-63
2023/06/04 10:02:49;;;;;;;2.05;0.95;;;;;;;;;;12992139;19;19918;-64
2023/06/04 10:07:10;;;;;;;1.15;0.63;;;;;;;;;;12990763;19;20032;-63
2023/06/04 10:11:35;;;;;;;0.60;0.47;;;;;;;;;;12991259;19;20018;-63
2023/06/04 10:15:56;;;;;;;1.05;0.70;;;;;;;;;;12991783;19;20030;-64
2023/06/04 10:20:14;;;;;;;1.75;0.75;;;;;;;;;;12989815;19;20002;-64
2023/06/04 10:24:32;;;;;;;2.28;0.60;;;;;;;;;;12991460;19;20014;-64
2023/06/04 10:28:51;;;;;;;2.70;0.63;;;;;;;;;;12989600;19;20018;-64
2023/06/04 10:33:08;;;;;;;2.90;1.00;;;;;;;;;;12988086;19;20021;-64
2023/06/04 10:37:29;;;;;;;1.65;0.68;;;;;;;;;;12989266;19;20466;-65
2023/06/04 10:41:58;;;;;;;5.30;0.75;;;;;;;;;;12990123;19;20010;-63
2023/06/04 10:46:20;;;;;;;1.63;0.70;;;;;;;;;;12989726;19;20025;-65
2023/06/04 10:50:52;;;;;;;1.30;0.70;;;;;;;;;;12989889;19;20472;-64
2023/06/04 10:55:10;;;;;;;2.60;0.57;;;;;;;;;;12987843;19;20025;-64
2023/06/04 10:59:28;;;;;;;1.08;0.65;;;;;;;;;;12987863;19;20018;-64
2023/06/04 11:03:46;;;;;;;1.23;0.73;;;;;;;;;;12986954;19;20017;-63
2023/06/04 11:08:05;;;;;;;2.15;0.85;;;;;;;;;;12987150;19;20480;-63
2023/06/04 11:12:23;;;;;;;1.75;0.60;;;;;;;;;;12987749;19;20006;-64
2023/06/04 11:16:41;;;;;;;1.35;0.60;;;;;;;;;;12987818;19;20010;-65
2023/06/04 11:21:01;;;;;;;3.58;0.63;;;;;;;;;;12986969;19;20011;-64
2023/06/04 11:25:19;;;;;;;2.15;0.90;;;;;;;;;;12985956;19;20449;-64
2023/06/04 11:29:37;;;;;;;6.22;1.52;;;;;;;;;;12986517;19;20469;-63
2023/06/04 11:33:55;;;;;;;4.30;0.93;;;;;;;;;;12985997;19;20026;-64
2023/06/04 11:38:13;;;;;;;1.27;0.88;;;;;;;;;;12985593;19;20041;-64
2023/06/04 11:42:32;;;;;;;1.60;0.70;;;;;;;;;;12987138;19;20003;-64
2023/06/04 11:46:52;;;;;;;2.10;0.68;;;;;;;;;;12984707;19;20236;-64
2023/06/04 11:51:10;;;;;;;1.92;0.60;;;;;;;;;;12984898;19;20015;-64
2023/06/04 11:55:28;;;;;;;2.30;0.80;;;;;;;;;;12984098;19;20041;-64
2023/06/04 11:59:48;;;;;;;1.17;0.70;;;;;;;;;;12982235;19;20014;-64
2023/06/04 12:04:19;;;;;;;4.38;0.80;;;;;;;;;;12983527;19;20139;-63
2023/06/04 12:08:47;;;;;;;1.38;0.63;;;;;;;;;;12983082;19;20018;-64
2023/06/04 12:13:06;;;;;;;1.98;0.80;;;;;;;;;;12983120;19;20010;-64
2023/06/04 12:17:24;;;;;;;1.90;0.77;;;;;;;;;;12984038;19;20018;-64
2023/06/04 12:21:43;;;;;;;1.48;0.68;;;;;;;;;;12982039;19;20301;-65
2023/06/04 12:26:02;;;;;;;2.40;0.75;;;;;;;;;;12983798;19;20002;-64
2023/06/04 12:30:20;;;;;;;2.97;1.02;;;;;;;;;;12982845;19;20524;-64
2023/06/04 12:34:42;;;;;;;3.60;0.88;;;;;;;;;;12983307;19;20468;-64
2023/06/04 12:39:01;;;;;;;2.33;0.77;;;;;;;;;;12983047;19;20018;-64
2023/06/04 12:43:19;;;;;;;4.70;0.90;;;;;;;;;;12983636;19;20022;-64
2023/06/04 12:47:40;;;;;;;1.33;0.73;;;;;;;;;;12983321;19;20021;-64
2023/06/04 12:52:00;;;;;;;1.50;0.60;;;;;;;;;;12982730;19;20031;-64
2023/06/04 12:56:18;;;;;;;1.50;0.65;;;;;;;;;;12980972;19;20025;-65
2023/06/04 13:00:36;;;;;;;1.15;0.70;;;;;;;;;;12978951;19;20041;-64
2023/06/04 13:04:55;;;;;;;0.73;0.38;;;;;;;;;;12981497;19;20010;-64
2023/06/04 13:09:14;;;;;;;2.13;0.73;;;;;;;;;;12979096;19;20015;-63
2023/06/04 13:13:31;;;;;;;1.33;0.90;;;;;;;;;;12981856;19;20468;-64
2023/06/04 13:17:50;;;;;;;3.78;0.57;;;;;;;;;;12981139;19;20014;-63
2023/06/04 13:22:09;;;;;;;1.23;0.70;;;;;;;;;;12981141;19;20010;-64
2023/06/04 13:26:28;;;;;;;2.92;0.63;;;;;;;;;;12982000;19;20025;-64
2023/06/04 13:30:46;;;;;;;1.25;0.60;;;;;;;;;;12984594;19;20020;-65
2023/06/04 13:35:04;;;;;;;2.17;0.88;;;;;;;;;;12990407;19;20032;-64
2023/06/04 13:39:22;;;;;;;1.27;0.63;;;;;;;;;;12992453;19;20010;-64
2023/06/04 13:43:40;;;;;;;4.25;0.85;;;;;;;;;;12992492;19;20034;-64
2023/06/04 13:48:05;;;;;;;1.67;0.47;;;;;;;;;;12992789;19;20029;-64
2023/06/04 13:52:24;;;;;;;2.33;1.00;;;;;;;;;;12992074;19;20465;-64
2023/06/04 13:56:44;;;;;;;1.80;0.60;;;;;;;;;;12991233;19;20014;-64
2023/06/04 14:01:02;;;;;;;3.17;0.73;;;;;;;;;;12990599;19;20014;-64
2023/06/04 14:05:21;;;;;;;0.75;0.60;;;;;;;;;;12991305;19;20021;-65
2023/06/04 14:09:40;;;;;;;0.98;0.68;;;;;;;;;;12991364;19;20011;-64
2023/06/04 14:13:59;;;;;;;1.10;0.60;;;;;;;;;;12991308;19;20022;-64
2023/06/04 14:18:18;;;;;;;0.60;0.45;;;;;;;;;;12991191;19;20568;-63
2023/06/04 14:22:37;;;;;;;1.17;0.68;;;;;;;;;;12991587;19;20098;-65
2023/06/04 14:26:55;;;;;;;1.55;0.70;;;;;;;;;;12991030;19;20014;-64
2023/06/04 14:31:12;;;;;;;2.65;0.60;;;;;;;;;;12989632;19;20027;-64
2023/06/04 14:35:30;;;;;;;2.38;0.77;;;;;;;;;;12990043;19;20014;-65
2023/06/04 14:39:49;;;;;;;1.58;0.68;;;;;;;;;;12988760;19;20511;-64
2023/06/04 14:44:08;;;;;;;1.55;0.70;;;;;;;;;;12984894;19;20016;-64
2023/06/04 14:48:27;;;;;;;1.27;0.70;;;;;;;;;;12988781;19;20014;-64
2023/06/04 14:52:45;;;;;;;0.95;0.70;;;;;;;;;;12987717;19;20029;-64
2023/06/04 14:57:03;;;;;;;1.15;0.60;;;;;;;;;;12987808;19;20033;-64
2023/06/04 15:01:23;;;;;;;0.45;0.43;;;;;;;;;;12988041;19;20548;-65
2023/06/04 15:05:42;;;;;;;1.65;0.80;;;;;;;;;;12988019;19;20010;-64
2023/06/04 15:10:06;;;;;;;1.98;0.52;;;;;;;;;;12987958;19;20018;-65
2023/06/04 15:14:23;;;;;;;8.23;1.00;;;;;;;;;;12988438;19;20007;-64
2023/06/04 15:18:41;;;;;;;1.67;0.70;;;;;;;;;;12987895;19;20041;-64
2023/06/04 15:22:59;;;;;;;3.13;0.60;;;;;;;;;;12987393;19;20002;-65
2023/06/04 15:27:17;;;;;;;;;;;;;;;;;;12987701;19;20359;-64
2023/06/04 15:31:35;;;;;;;0.90;0.60;;;;;;;;;;12986188;19;19938;-64
2023/06/04 15:35:53;;;;;;;2.83;0.63;;;;;;;;;;12986783;19;19999;-64
2023/06/04 15:40:11;;;;;;;;;;;;;;;;;;12984795;19;20026;-64
2023/06/04 15:44:29;;;;;;;1.77;0.60;;;;;;;;;;12985636;19;19910;-65
2023/06/04 15:48:48;;;;;;;2.80;0.80;;;;;;;;;;12985826;19;20021;-64
2023/06/04 15:53:06;;;;;;;1.95;0.52;;;;;;;;;;12982389;19;20018;-64
2023/06/04 15:57:23;;;;;;;;;;;;;;;;;;12985519;19;20373;-65
2023/06/04 16:01:44;;;;;;;4.75;0.93;;;;;;;;;;12984460;19;19923;-64
2023/06/04 16:06:03;;;;;;;1.33;0.70;;;;;;;;;;12984643;19;20353;-64
2023/06/04 16:10:20;;;;;;;2.22;0.60;;;;;;;;;;12984752;19;20014;-64
2023/06/04 16:14:38;;;;;;;;;;;;;;;;;;12984857;19;20006;-64
2023/06/04 16:18:56;;;;;;;1.55;0.90;;;;;;;;;;12983502;19;19923;-64
2023/06/04 16:23:14;;;;;;;1.17;0.77;;;;;;;;;;12983123;19;20460;-64
2023/06/04 16:27:33;;;;;;;4.65;0.80;;;;;;;;;;12983191;19;20019;-64
2023/06/04 16:31:50;;;;;;;1.30;0.80;;;;;;;;;;12983107;19;20070;-64
2023/06/04 16:36:09;;;;;;;1.13;0.77;;;;;;;;;;12982111;19;20472;-64
2023/06/04 16:40:27;;;;;;;2.20;0.80;;;;;;;;;;12982292;19;20006;-64
2023/06/04 16:44:45;;;;;;;0.60;0.40;;;;;;;;;;12982442;19;20010;-64
2023/06/04 16:49:03;;;;;;;1.08;0.73;;;;;;;;;;12979608;19;20014;-64
2023/06/04 16:53:21;;;;;;;2.35;0.80;;;;;;;;;;12981298;19;20038;-63
2023/06/04 16:57:39;;;;;;;3.33;1.00;;;;;;;;;;12982698;19;20006;-64
2023/06/04 17:01:58;;;;;;;0.80;0.63;;;;;;;;;;12981741;19;20046;-64
2023/06/04 17:06:16;;;;;;;;;;;;;;;;;;12981688;19;20007;-64
2023/06/04 17:10:34;;;;;;;0.82;0.50;;;;;;;;;;12981320;19;19946;-64
2023/06/04 17:14:53;;;;;;;2.35;0.85;;;;;;;;;;12980899;19;20358;-65
2023/06/04 17:19:11;;;;;;;0.98;0.68;;;;;;;;;;12979187;19;20111;-65
2023/06/04 17:23:30;;;;;;;;;;;;;;;;;;12981638;19;20011;-64
2023/06/04 17:27:50;;;;;;;0.90;0.43;;;;;;;;;;12980331;19;20416;-64
2023/06/04 17:32:10;;;;;;;2.10;0.68;;;;;;;;;;12979230;19;20003;-64
2023/06/04 17:36:27;;;;;;;3.60;1.48;;;;;;;;;;12979955;19;20473;-63
2023/06/04 17:40:45;;;;;;;2.92;1.25;;;;;;;;;;12978390;19;20014;-64
2023/06/04 17:45:10;;;;;;;1.23;0.80;;;;;;;;;;12979827;19;20469;-64
2023/06/04 17:49:29;;;;;;;1.20;0.65;;;;;;;;;;12980166;19;20388;-64
2023/06/04 17:53:48;;;;;;;3.63;1.75;;;;;;;;;;12978828;19;20018;-64
2023/06/04 17:58:06;;;;;;;2.95;1.10;;;;;;;;;;12979112;19;20045;-65
2023/06/04 18:02:25;;;;;;;1.73;0.80;;;;;;;;;;12979582;19;19998;-63
2023/06/04 18:06:43;;;;;;;1.65;0.65;;;;;;;;;;12978795;19;20477;-64
2023/06/04 18:11:01;;;;;;;1.92;0.80;;;;;;;;;;12978179;19;20010;-64
2023/06/04 18:15:22;;;;;;;2.70;0.82;;;;;;;;;;12977639;19;20015;-63
2023/06/04 18:19:40;;;;;;;1.58;0.90;;;;;;;;;;12986538;19;20022;-63
2023/06/04 18:23:58;;;;;;;1.27;0.73;;;;;;;;;;12990439;19;20010;-64
2023/06/04 18:28:17;;;;;;;1.98;1.10;;;;;;;;;;12989447;19;20018;-63
2023/06/04 18:32:36;;;;;;;1.52;0.90;;;;;;;;;;12989615;19;20419;-62
2023/06/04 18:36:56;;;;;;;3.75;1.05;;;;;;;;;;12989543;19;20599;-65
2023/06/04 18:41:14;;;;;;;2.65;1.00;;;;;;;;;;12987872;19;20036;-62
2023/06/04 18:45:33;;;;;;;3.53;0.88;;;;;;;;;;12988714;19;20616;-65
2023/06/04 18:49:51;;;;;;;5.82;1.58;;;;;;;;;;12988491;19;20010;-63
2023/06/04 18:54:10;;;;;;;5.80;1.88;;;;;;;;;;12986885;19;20019;-63
2023/06/04 18:58:29;;;;;;;20.50;6.78;;;;;;;;;;12988890;19;20343;-63
2023/06/04 19:02:48;;;;;;;17.70;5.55;;;;;;;;;;12988328;19;20461;-63
2023/06/04 19:07:07;;;;;;;16.55;4.50;;;;;;;;;;12987335;19;20066;-63
2023/06/04 19:11:25;;;;;;;;;;;;;;;;;;12988367;19;20006;-63
2023/06/04 19:15:42;;;;;;;8.63;2.70;;;;;;;;;;12987102;19;20239;-62
2023/06/04 19:20:01;;;;;;;5.25;2.05;;;;;;;;;;12986274;19;20021;-64
2023/06/04 19:24:21;;;;;;;5.38;1.75;;;;;;;;;;12985826;19;20014;-63
2023/06/04 19:28:39;;;;;;;4.38;1.50;;;;;;;;;;12985451;19;20018;-62
2023/06/04 19:32:58;;;;;;;4.70;1.60;;;;;;;;;;12986472;19;20027;-62
2023/06/04 19:37:17;;;;;;;2.20;1.20;;;;;;;;;;12985804;19;20015;-63
2023/06/04 19:41:35;;;;;;;1.70;1.00;;;;;;;;;;12985720;19;20082;-63
2023/06/04 19:45:56;;;;;;;3.85;1.30;;;;;;;;;;12985656;19;20010;-64
2023/06/04 19:50:16;;;;;;;2.45;1.17;;;;;;;;;;12986068;19;20011;-63
2023/06/04 19:54:35;;;;;;;4.20;1.48;;;;;;;;;;12984989;19;20347;-63
2023/06/04 19:58:54;;;;;;;2.05;0.98;;;;;;;;;;12985202;19;20019;-64
2023/06/04 20:03:13;;;;;;;1.33;0.80;;;;;;;;;;12984392;19;20466;-64
2023/06/04 20:07:34;;;;;;;1.58;1.00;;;;;;;;;;12984727;19;20006;-63
2023/06/04 20:11:55;;;;;;;1.58;0.95;;;;;;;;;;12983781;19;20500;-63
2023/06/04 20:16:13;;;;;;;7.38;1.60;;;;;;;;;;12983196;19;20508;-64
2023/06/04 20:20:31;;;;;;;6.47;2.60;;;;;;;;;;12982468;19;20022;-63
2023/06/04 20:24:49;;;;;;;4.07;2.05;;;;;;;;;;12983764;19;20006;-62
2023/06/04 20:29:09;;;;;;;7.05;2.53;;;;;;;;;;12982634;19;20015;-62
2023/06/04 20:33:29;;;;;;;8.00;2.15;;;;;;;;;;12983366;19;20010;-63
2023/06/04 20:37:48;;;;;;;6.82;2.53;;;;;;;;;;12982624;19;20045;-62
2023/06/04 20:42:06;;;;;;;;;;;;;;;;;;12980769;19;20011;-62
2023/06/04 20:46:24;;;;;;;;;;;;;;;;;;12983820;19;20298;-62
2023/06/04 20:50:42;;;;;;;8.15;3.03;;;;;;;;;;12982748;19;19915;-60
2023/06/04 20:55:01;;;;;;;4.47;2.25;;;;;;;;;;12981502;19;20036;-60
2023/06/04 20:59:18;;;;;;;3.00;1.73;;;;;;;;;;12981117;19;20019;-60
2023/06/04 21:03:36;;;;;;;;;;;;;;;;;;12982594;19;20014;-60
2023/06/04 21:07:56;;;;;;;3.33;1.52;;;;;;;;;;12981519;19;20345;-60
2023/06/04 21:12:19;;;;;;;2.28;1.25;;;;;;;;;;12980265;19;20418;-59
2023/06/04 21:16:38;;;;;;;2.67;1.63;;;;;;;;;;12981447;19;20010;-60
2023/06/04 21:20:56;;;;;;;2.72;1.30;;;;;;;;;;12980836;19;20014;-60
2023/06/04 21:25:15;;;;;;;1.98;1.20;;;;;;;;;;12980594;19;20015;-60
2023/06/04 21:29:33;;;;;;;2.83;1.40;;;;;;;;;;12981704;19;20018;-60
2023/06/04 21:33:51;;;;;;;2.00;1.23;;;;;;;;;;12980791;19;20022;-60
2023/06/04 21:38:10;;;;;;;2.75;1.58;;;;;;;;;;12979929;19;20721;-59
2023/06/04 21:42:28;;;;;;;5.35;1.80;;;;;;;;;;12979065;19;20011;-60
2023/06/04 21:46:47;;;;;;;1.45;0.93;;;;;;;;;;12979396;19;20014;-60
2023/06/04 21:51:06;;;;;;;2.08;1.15;;;;;;;;;;12978753;19;20038;-61
2023/06/04 21:55:24;;;;;;;4.40;1.55;;;;;;;;;;12989491;19;20030;-60
2023/06/04 21:59:42;;;;;;;1.98;1.35;;;;;;;;;;12991178;19;20060;-61
2023/06/04 22:04:03;;;;;;;8.20;1.73;;;;;;;;;;12991671;19;20021;-61
2023/06/04 22:08:20;;;;;;;2.10;1.17;;;;;;;;;;12991291;19;20497;-61
2023/06/04 22:12:39;;;;;;;2.33;1.30;;;;;;;;;;12990614;19;20015;-61
2023/06/04 22:17:00;;;;;;;3.17;1.27;;;;;;;;;;12991618;19;20011;-61
2023/06/04 22:21:19;;;;;;;4.22;1.38;;;;;;;;;;12990417;19;20010;-61
2023/06/04 22:25:37;;;;;;;1.95;1.00;;;;;;;;;;12975047;19;20020;-61
2023/06/04 22:29:55;;;;;;;1.70;1.02;;;;;;;;;;12987814;19;20018;-61
2023/06/04 22:34:13;;;;;;;4.38;1.50;;;;;;;;;;12989146;19;20010;-61
2023/06/04 22:38:30;;;;;;;3.53;1.30;;;;;;;;;;12987142;19;20050;-61
2023/06/04 22:42:49;;;;;;;2.00;1.10;;;;;;;;;;12988441;19;20025;-62
2023/06/04 22:47:07;;;;;;;1.67;1.27;;;;;;;;;;12987938;19;20014;-61
2023/06/04 22:51:25;;;;;;;3.22;1.30;;;;;;;;;;12989345;19;20018;-60
2023/06/04 22:55:44;;;;;;;2.30;1.05;;;;;;;;;;12988159;19;20006;-60
2023/06/04 23:00:05;;;;;;;2.30;1.20;;;;;;;;;;12988671;19;20021;-61
2023/06/04 23:04:23;;;;;;;2.78;1.25;;;;;;;;;;12987799;19;20014;-60
2023/06/04 23:08:41;;;;;;;3.05;1.63;;;;;;;;;;12988653;19;20022;-61
2023/06/04 23:12:59;;;;;;;;;;;;;;;;;;12988489;19;20014;-60
2023/06/04 23:17:18;;;;;;;2.22;0.90;;;;;;;;;;12987123;19;19919;-61
2023/06/04 23:21:37;;;;;;;4.43;1.30;;;;;;;;;;12986808;19;20018;-60
2023/06/04 23:25:54;;;;;;;;;;;;;;;;;;12987566;19;20027;-60
2023/06/04 23:30:13;;;;;;;2.22;1.10;;;;;;;;;;12985896;19;19914;-61
2023/06/04 23:34:31;;;;;;;4.22;1.55;;;;;;;;;;12986261;19;20104;-60
2023/06/04 23:38:49;;;;;;;3.25;0.80;;;;;;;;;;12986512;19;20323;-60
2023/06/04 23:43:07;;;;;;;1.85;1.15;;;;;;;;;;12983306;19;20022;-60
2023/06/04 23:47:26;;;;;;;1.92;1.25;;;;;;;;;;12986279;19;20887;-60
2023/06/04 23:51:44;;;;;;;3.15;1.20;;;;;;;;;;12985679;19;20469;-61
2023/06/04 23:56:03;;;;;;;3.78;1.20;;;;;;;;;;12984251;19;20022;-60
